Skip Navigation Links
NOAA logo - Click to go to the NOAA homepage
NOAA's National Weather Service
Alaska Aviation Weather Unit
  NWS logo - Click to go to the NWS homepage
Left Navbar Graphic     08 AKDT = 16 GMT

   
NOAA is celebrating 200 years of science, service, and stewardship. Visit the NOAA 200th celebration Web site to learn more.
USA.gov is the U.S. Government's official Web portal to all Federal, state and local government Web resources and services.
Facebook
NWS on Facebook

Important Change Regarding the AAWU Web Presence

 

Over the last several months, the AAWU has been working to navigate its webpages to a nationally supported server. Security, as well as other needs, have necessitated the change.  In the process, we have made an effort to enhance the functionality of our website, as well as some of our products. As of June 20, 2017, aawu.arh.noaa.gov will be discontinued. The new AAWU web address is weather.gov/aawu. It is now live and will run in-parallel with the old site until it is discontinued. Please send any feedback or questions regarding the new webpages to nws.ar.aawu.webauthors@noaa.gov.  Thank you for your patience during this time of transition.
AAWU Home :: Display TAF Add Bookmark
METAR PAAK 231016Z 00000KT 8SM OVC014 06/04 A2981 RMK AO1=

METAR PAAK 231036Z 19004KT 10SM OVC012 06/04 A2980 RMK AO1=

METAR PAAK 231116Z 20004KT 10SM FEW012 SCT020 OVC033 06/02 A2978 RMK
     AO1=

METAR PAAK 231136Z 19006KT 9SM OVC036 06/02 A2976 RMK AO1=

METAR PAAK 231156Z 21006KT 10SM SCT038 OVC060 06/03 A2975 RMK AO1 10060
     20060 57027=

METAR PAAK 231216Z 00000KT 10SM FEW027 BKN036 OVC060 07/04 A2975 RMK
     AO1=

METAR PAAK 231236Z 00000KT 10SM SCT025 OVC032 06/03 A2975 RMK AO1=

METAR PAAK 231256Z 00000KT 10SM SCT023 OVC032 06/03 A2974 RMK AO1=

METAR PAAK 231316Z 30003KT 10SM OVC020 06/02 A2975 RMK AO1=

METAR PAAK 231336Z 30006KT 3SM BKN018 OVC024 06/03 A2975 RMK AO1=

METAR PAAK 231356Z 29009G15KT 2 1/2SM SCT006 BKN011 OVC017 06/02 A2974
     RMK AO1=

METAR PAAK 231416Z 29012KT 5SM OVC009 05/01 A2975 RMK AO1=

METAR PAAK 231436Z 29012G17KT 5SM OVC007 04/01 A2975 RMK AO1=

METAR PAAK 231456Z 30013G18KT 7SM OVC007 04/01 A2975 RMK AO1 54000=

METAR PAAK 231516Z 31012KT 2 1/2SM OVC009 05/01 A2975 RMK AO1=

METAR PAAK 231536Z 29011KT 1 3/4SM OVC009 04/01 A2976 RMK AO1=

METAR PAAK 231556Z 30008KT 3SM BKN009 OVC015 04/01 A2976 RMK AO1=

METAR PAAK 231616Z 31010KT 5SM OVC009 04/01 A2976 RMK AO1=

METAR PAAK 231636Z 29014KT 10SM SCT011 BKN022 OVC055 04/01 A2976 RMK
     AO1=


NOAA's National Weather Service
Alaska Aviation Weather Unit
6930 Sand Lake Road
Anchorage, AK 99502-1845
Disclaimer
Credits
Glossary
Privacy Policy
About Us
Career Opportunities
Contact AAWU Internet Services Site last modified: April, 17th 2012